createdAt,value
2023-03-10T00:01:00.710Z,40.58
2023-03-10T00:02:02.719Z,39.95
2023-03-10T00:03:04.754Z,39.33
2023-03-10T00:04:06.791Z,42.00
2023-03-10T00:05:10.663Z,41.17
2023-03-10T00:08:28.267Z,37.83
2023-03-10T00:09:30.162Z,38.88
2023-03-10T00:10:32.242Z,39.30
2023-03-10T00:11:34.343Z,40.22
2023-03-10T00:12:36.314Z,39.92
2023-03-10T00:13:38.918Z,39.38
2023-03-10T00:14:41.132Z,39.10
2023-03-10T00:16:45.315Z,39.08
2023-03-10T00:17:50.195Z,38.53
2023-03-10T00:18:53.186Z,38.17
2023-03-10T00:19:55.199Z,38.65
2023-03-10T00:20:59.016Z,37.95
2023-03-10T00:22:02.631Z,39.85
2023-03-10T00:23:04.628Z,39.22
2023-03-10T00:24:06.923Z,39.65
2023-03-10T00:25:10.530Z,39.53
2023-03-10T00:26:14.557Z,40.13
2023-03-10T00:27:16.590Z,39.78
2023-03-10T00:28:18.521Z,39.25
2023-03-10T00:29:22.105Z,39.03
2023-03-10T00:30:24.315Z,41.92
2023-03-10T00:31:28.128Z,40.33
2023-03-10T00:32:30.181Z,38.65
2023-03-10T00:33:33.692Z,38.30
2023-03-10T00:34:35.923Z,39.85
2023-03-10T00:35:37.914Z,40.13
2023-03-10T00:36:40.576Z,39.88
2023-03-10T00:37:42.448Z,39.50
2023-03-10T00:38:45.651Z,40.05
2023-03-10T00:39:52.222Z,38.17
2023-03-10T00:41:01.738Z,37.47
2023-03-10T00:42:03.765Z,42.20
2023-03-10T00:43:05.707Z,40.03
2023-03-10T00:44:09.686Z,40.30
2023-03-10T00:45:11.812Z,38.80
2023-03-10T00:46:14.205Z,39.28
2023-03-10T00:47:16.143Z,39.13
2023-03-10T00:48:18.087Z,38.78
2023-03-10T00:49:20.462Z,38.92
2023-03-10T00:50:22.302Z,34.78
2023-03-10T00:51:24.310Z,36.72
2023-03-10T00:52:26.178Z,36.63
2023-03-10T00:53:28.872Z,35.47
2023-03-10T00:54:30.733Z,37.38
2023-03-10T00:55:32.800Z,36.97
2023-03-10T00:56:34.729Z,35.17
2023-03-10T00:57:36.908Z,35.70
2023-03-10T00:58:39.173Z,37.20
2023-03-10T00:59:49.919Z,35.67
2023-03-10T01:00:52.715Z,34.75
2023-03-10T01:01:54.736Z,32.85
2023-03-10T01:02:56.720Z,34.25
2023-03-10T01:04:02.185Z,33.80
2023-03-10T01:05:04.310Z,32.65
2023-03-10T01:06:06.491Z,30.48
2023-03-10T01:07:08.400Z,31.98
2023-03-10T01:08:10.281Z,27.42
2023-03-10T01:09:12.254Z,26.95
2023-03-10T01:10:14.302Z,26.73
2023-03-10T01:11:17.862Z,27.40
2023-03-10T01:12:19.925Z,31.42
2023-03-10T01:13:22.142Z,31.60
2023-03-10T01:14:24.901Z,32.88
2023-03-10T01:15:26.836Z,32.47
2023-03-10T01:16:30.121Z,32.28
2023-03-10T01:17:32.320Z,33.08
2023-03-10T01:18:34.216Z,33.70
2023-03-10T01:19:36.173Z,33.97
2023-03-10T01:20:38.111Z,30.25
2023-03-10T01:21:41.206Z,30.15
2023-03-10T01:22:43.881Z,31.88
2023-03-10T01:23:46.339Z,28.52
2023-03-10T01:24:48.232Z,27.02
2023-03-10T01:25:51.218Z,25.90
2023-03-10T01:26:53.077Z,27.42
2023-03-10T01:27:55.181Z,29.02
2023-03-10T01:28:57.495Z,27.00
2023-03-10T01:29:59.658Z,27.75
2023-03-10T01:31:01.631Z,28.58
2023-03-10T01:32:03.709Z,27.23
2023-03-10T01:33:06.181Z,27.90
2023-03-10T01:34:08.163Z,26.25
2023-03-10T01:35:10.932Z,25.42
2023-03-10T01:36:22.746Z,26.05
2023-03-10T01:37:24.782Z,24.58
2023-03-10T01:38:26.759Z,25.27
2023-03-10T01:39:28.640Z,25.90
2023-03-10T01:40:30.640Z,23.98
2023-03-10T01:41:32.523Z,26.33
2023-03-10T01:42:34.738Z,23.73
2023-03-10T01:43:41.705Z,23.40
2023-03-10T01:44:43.825Z,25.05
2023-03-10T01:45:45.772Z,24.65
2023-03-10T01:46:59.351Z,26.13
2023-03-10T01:48:01.786Z,26.45
2023-03-10T01:49:19.080Z,24.10
2023-03-10T01:50:22.043Z,25.58
2023-03-10T01:51:24.763Z,23.23
2023-03-10T01:52:31.180Z,23.83
2023-03-10T01:53:34.033Z,24.48
2023-03-10T01:54:42.671Z,23.85
2023-03-10T01:55:52.735Z,24.65
2023-03-10T01:56:56.226Z,22.07
2023-03-10T01:57:58.621Z,26.20
2023-03-10T01:59:00.651Z,25.25
2023-03-10T02:00:04.444Z,25.00
2023-03-10T02:01:08.879Z,23.95
2023-03-10T02:02:11.964Z,25.23
2023-03-10T02:03:22.946Z,24.95
2023-03-10T02:04:35.974Z,23.23
2023-03-10T02:05:43.857Z,23.85
2023-03-10T02:06:48.370Z,24.27
2023-03-10T02:07:50.896Z,23.98
2023-03-10T02:08:56.702Z,23.48
2023-03-10T02:09:59.623Z,23.98
2023-03-10T02:11:02.104Z,25.73
2023-03-10T02:12:05.705Z,26.23
2023-03-10T02:13:07.716Z,23.17
2023-03-10T02:14:09.651Z,25.73
2023-03-10T02:15:12.293Z,23.77
2023-03-10T02:16:15.098Z,25.50
2023-03-10T02:17:21.631Z,23.70
2023-03-10T02:18:24.327Z,24.15
2023-03-10T02:20:07.080Z,25.33
2023-03-10T02:21:21.468Z,23.83
2023-03-10T02:22:23.466Z,24.25
2023-03-10T02:24:00.357Z,23.92
2023-03-10T02:25:20.843Z,22.23
2023-03-10T02:26:37.966Z,22.15
2023-03-10T02:27:40.949Z,23.35
2023-03-10T02:28:43.784Z,22.80
2023-03-10T02:30:07.751Z,21.92
2023-03-10T02:32:34.672Z,22.52
2023-03-10T02:33:46.123Z,23.45
2023-03-10T02:34:48.014Z,22.85
2023-03-10T02:35:49.982Z,20.75
2023-03-10T02:36:51.929Z,22.55
2023-03-10T02:37:53.906Z,24.08
2023-03-10T02:38:55.897Z,24.30
2023-03-10T02:39:58.425Z,23.90
2023-03-10T02:41:02.493Z,22.67
2023-03-10T02:42:04.554Z,23.85
2023-03-10T02:43:32.742Z,23.08
2023-03-10T02:44:35.122Z,22.27
2023-03-10T02:45:39.747Z,22.85
2023-03-10T02:46:41.805Z,25.10
2023-03-10T02:47:43.746Z,26.30
2023-03-10T02:48:45.819Z,23.48
2023-03-10T02:49:48.323Z,24.23
2023-03-10T02:50:51.195Z,24.40
2023-03-10T02:51:54.982Z,24.80
2023-03-10T02:53:18.236Z,24.45
2023-03-10T02:54:20.203Z,22.08
2023-03-10T02:55:22.297Z,24.35
2023-03-10T02:56:24.542Z,25.58
2023-03-10T02:57:26.603Z,25.23
2023-03-10T02:58:30.681Z,30.27
2023-03-10T02:59:33.347Z,30.35
2023-03-10T03:00:42.959Z,34.58
2023-03-10T03:01:45.092Z,33.45
2023-03-10T03:02:47.067Z,30.15
2023-03-10T03:03:49.003Z,27.77
2023-03-10T03:04:50.894Z,25.58
2023-03-10T03:05:53.381Z,26.00
2023-03-10T03:06:55.529Z,25.27
2023-03-10T03:07:57.485Z,24.17
2023-03-10T03:08:59.478Z,26.42
2023-03-10T03:10:01.408Z,27.38
2023-03-10T03:11:03.537Z,28.75
2023-03-10T03:12:05.621Z,29.00
2023-03-10T03:13:08.088Z,27.63
2023-03-10T03:14:10.296Z,26.48
2023-03-10T03:15:12.342Z,27.33
2023-03-10T03:16:14.837Z,26.50
2023-03-10T03:17:16.803Z,27.08
2023-03-10T03:18:18.784Z,26.05
2023-03-10T03:19:20.743Z,24.20
2023-03-10T03:20:22.657Z,26.48
2023-03-10T03:21:24.639Z,25.92
2023-03-10T03:22:26.525Z,25.80
2023-03-10T03:23:28.509Z,23.60
2023-03-10T03:24:32.112Z,25.08
2023-03-10T03:25:38.264Z,26.25
2023-03-10T03:26:41.043Z,24.05
2023-03-10T03:27:43.456Z,24.75
2023-03-10T03:28:46.153Z,24.88
2023-03-10T03:29:48.020Z,24.48
2023-03-10T03:30:49.921Z,26.27
2023-03-10T03:31:54.561Z,26.73
2023-03-10T03:32:57.207Z,25.38
2023-03-10T03:33:59.058Z,24.45
2023-03-10T03:35:01.277Z,26.40
2023-03-10T03:36:03.246Z,29.88
2023-03-10T03:37:05.534Z,25.63
2023-03-10T03:38:07.629Z,25.73
2023-03-10T03:39:09.576Z,28.45
2023-03-10T03:40:13.467Z,25.83
2023-03-10T03:41:15.417Z,26.42
2023-03-10T03:42:17.342Z,27.10
2023-03-10T03:43:19.236Z,26.45
2023-03-10T03:44:21.108Z,26.83
2023-03-10T03:45:29.482Z,25.42
2023-03-10T03:46:31.470Z,27.05
2023-03-10T03:47:33.789Z,25.33
2023-03-10T03:48:35.956Z,25.85
2023-03-10T03:49:38.664Z,26.38
2023-03-10T03:50:40.737Z,26.05
2023-03-10T03:51:42.728Z,26.52
2023-03-10T03:52:45.781Z,26.00
2023-03-10T03:53:47.687Z,27.17
2023-03-10T03:54:49.785Z,26.85
2023-03-10T03:55:51.950Z,25.38
2023-03-10T03:56:53.843Z,25.10
2023-03-10T03:57:55.797Z,28.02
2023-03-10T03:58:58.883Z,25.75
2023-03-10T04:00:00.764Z,26.15
2023-03-10T04:01:02.680Z,24.70
2023-03-10T04:02:04.602Z,25.38
2023-03-10T04:03:06.797Z,24.77
2023-03-10T04:04:08.995Z,23.02
2023-03-10T04:05:11.378Z,23.73
2023-03-10T04:06:13.295Z,24.05
2023-03-10T04:07:15.222Z,22.67
2023-03-10T04:08:17.528Z,25.63
2023-03-10T04:09:19.611Z,24.60
2023-03-10T04:10:23.741Z,24.92
2023-03-10T04:11:25.693Z,24.70
2023-03-10T04:12:29.616Z,25.13
2023-03-10T04:13:31.651Z,24.80
2023-03-10T04:14:34.834Z,28.70
2023-03-10T04:15:36.811Z,26.20
2023-03-10T04:16:38.757Z,29.00
2023-03-10T04:17:40.673Z,27.33
2023-03-10T04:18:45.600Z,28.90
2023-03-10T04:19:54.152Z,27.83
2023-03-10T04:21:02.669Z,26.58
2023-03-10T04:22:04.576Z,26.35
2023-03-10T04:23:06.488Z,25.23
2023-03-10T04:24:08.521Z,26.13
2023-03-10T04:25:10.982Z,25.20
2023-03-10T04:26:13.507Z,24.45
2023-03-10T04:27:15.686Z,23.73
2023-03-10T04:28:18.905Z,23.80
2023-03-10T04:29:24.471Z,24.42
2023-03-10T04:30:29.465Z,23.63
2023-03-10T04:31:31.612Z,23.63
2023-03-10T04:32:33.765Z,22.48
2023-03-10T04:33:36.050Z,24.83
2023-03-10T04:34:37.976Z,23.90
2023-03-10T04:35:47.681Z,22.48
2023-03-10T04:36:49.656Z,24.00
2023-03-10T04:37:51.610Z,24.08
2023-03-10T04:38:53.511Z,21.13
2023-03-10T04:39:55.502Z,20.88
2023-03-10T04:40:58.718Z,20.58
2023-03-10T04:42:00.676Z,23.42
2023-03-10T04:43:02.643Z,20.80
2023-03-10T04:44:05.085Z,21.77
2023-03-10T04:45:07.681Z,21.83
2023-03-10T04:46:09.995Z,19.90
2023-03-10T04:47:11.943Z,20.77
2023-03-10T04:48:13.898Z,20.52
2023-03-10T04:49:15.882Z,21.00
2023-03-10T04:50:22.900Z,17.90
2023-03-10T04:51:24.879Z,20.52
2023-03-10T04:52:26.849Z,18.90
2023-03-10T04:53:29.595Z,20.75
2023-03-10T04:54:31.536Z,20.42
2023-03-10T04:55:33.705Z,20.67
2023-03-10T04:56:36.008Z,20.38
2023-03-10T04:57:38.368Z,19.27
2023-03-10T04:58:40.364Z,29.20
2023-03-10T04:59:42.400Z,26.67
2023-03-10T05:00:56.621Z,23.95
2023-03-10T05:02:04.627Z,24.33
2023-03-10T05:03:06.746Z,23.88
2023-03-10T05:04:10.224Z,21.85
2023-03-10T05:05:12.470Z,23.17
2023-03-10T05:06:23.504Z,20.70
2023-03-10T05:08:27.497Z,20.88
2023-03-10T05:09:29.491Z,20.33
2023-03-10T05:10:34.122Z,20.02
2023-03-10T05:11:36.278Z,21.77
2023-03-10T05:12:39.596Z,23.45
2023-03-10T05:13:41.526Z,21.60
2023-03-10T05:14:43.477Z,24.13
2023-03-10T05:15:45.503Z,23.45
2023-03-10T05:16:48.861Z,24.77
2023-03-10T05:17:51.020Z,24.35
2023-03-10T05:18:53.087Z,23.88
2023-03-10T05:19:55.172Z,24.52
2023-03-10T05:20:58.368Z,21.88
2023-03-10T05:22:00.471Z,23.20
2023-03-10T05:23:02.637Z,23.30
2023-03-10T05:24:04.734Z,23.00
2023-03-10T05:25:07.690Z,22.90
2023-03-10T05:26:11.342Z,22.83
2023-03-10T05:27:15.021Z,24.38
2023-03-10T05:28:17.404Z,23.10
2023-03-10T05:29:20.924Z,22.77
2023-03-10T05:30:23.104Z,22.45
2023-03-10T05:31:27.883Z,23.17
2023-03-10T05:32:29.894Z,22.30
2023-03-10T05:33:32.472Z,20.77
2023-03-10T05:34:35.094Z,21.80
2023-03-10T05:35:39.049Z,19.05
2023-03-10T05:36:41.699Z,19.92
2023-03-10T05:37:45.354Z,19.17
2023-03-10T05:38:47.792Z,19.27
2023-03-10T05:39:49.709Z,18.77
2023-03-10T05:40:51.587Z,19.27
2023-03-10T05:41:53.484Z,17.95
2023-03-10T05:42:55.424Z,19.02
2023-03-10T05:43:57.452Z,19.05
2023-03-10T05:44:59.352Z,21.70
2023-03-10T05:46:01.316Z,17.48
2023-03-10T05:47:03.385Z,18.23
2023-03-10T05:48:05.696Z,19.13
2023-03-10T05:49:07.597Z,17.40
2023-03-10T05:50:11.060Z,16.88
2023-03-10T05:51:13.218Z,18.73
2023-03-10T05:52:15.269Z,13.45
2023-03-10T05:53:17.210Z,16.08
2023-03-10T05:54:19.143Z,16.55
2023-03-10T05:55:22.146Z,15.27
2023-03-10T05:56:24.103Z,15.40
2023-03-10T05:57:26.002Z,13.05
2023-03-10T05:58:28.008Z,12.15
2023-03-10T05:59:29.928Z,12.90
2023-03-10T06:00:31.906Z,12.00
2023-03-10T06:01:33.952Z,10.98
2023-03-10T06:02:36.646Z,11.30
2023-03-10T06:03:39.016Z,12.35
2023-03-10T06:04:41.113Z,11.43
2023-03-10T06:05:43.387Z,13.10
2023-03-10T06:06:45.286Z,11.45
2023-03-10T06:07:47.177Z,10.13
2023-03-10T06:08:49.770Z,9.10
2023-03-10T06:09:54.030Z,10.70
2023-03-10T06:10:56.939Z,9.75
2023-03-10T06:11:59.691Z,9.82
2023-03-10T06:13:01.658Z,11.68
2023-03-10T06:14:04.380Z,10.18
2023-03-10T06:15:07.165Z,10.18
2023-03-10T06:16:09.164Z,10.68
2023-03-10T06:17:11.254Z,9.38
2023-03-10T06:18:13.133Z,9.10
2023-03-10T06:19:15.024Z,10.50
2023-03-10T06:20:16.958Z,9.98
2023-03-10T06:21:19.021Z,10.25
2023-03-10T06:22:20.895Z,10.40
2023-03-10T06:23:24.349Z,11.23
2023-03-10T06:24:28.620Z,13.13
2023-03-10T06:25:30.664Z,12.55
2023-03-10T06:26:32.801Z,11.55
2023-03-10T06:27:34.696Z,11.82
2023-03-10T06:28:38.941Z,12.85
2023-03-10T06:29:40.982Z,12.45
2023-03-10T06:30:42.875Z,10.55
2023-03-10T06:31:44.870Z,9.15
2023-03-10T06:32:46.920Z,9.15
2023-03-10T06:33:49.055Z,11.07
2023-03-10T06:34:50.919Z,10.32
2023-03-10T06:35:53.022Z,9.63
2023-03-10T06:36:56.322Z,9.88
2023-03-10T06:37:58.233Z,12.32
2023-03-10T06:39:00.208Z,12.02
2023-03-10T06:40:02.491Z,10.38
2023-03-10T06:41:04.762Z,10.70
2023-03-10T06:42:09.226Z,10.65
2023-03-10T06:43:11.098Z,9.40
2023-03-10T06:44:18.810Z,8.65
2023-03-10T06:45:20.829Z,8.38
2023-03-10T06:46:23.045Z,8.43
2023-03-10T06:47:25.011Z,7.97
2023-03-10T06:48:29.192Z,8.65
2023-03-10T06:49:32.901Z,8.23
2023-03-10T06:50:35.220Z,8.60
2023-03-10T06:51:37.173Z,8.38
2023-03-10T06:52:39.124Z,7.78
2023-03-10T06:53:41.414Z,6.95
2023-03-10T06:54:43.298Z,7.30
2023-03-10T06:55:45.593Z,8.43
2023-03-10T06:56:47.590Z,7.35
2023-03-10T06:57:51.917Z,6.13
2023-03-10T06:58:53.872Z,7.22
2023-03-10T06:59:55.969Z,7.10
2023-03-10T07:00:59.090Z,6.95
2023-03-10T07:02:01.049Z,7.03
2023-03-10T07:03:03.059Z,7.13
2023-03-10T07:04:04.997Z,7.38
2023-03-10T07:05:08.203Z,7.43
2023-03-10T07:06:10.112Z,7.63
2023-03-10T07:07:13.521Z,7.05
2023-03-10T08:06:33.062Z,4.10
2023-03-10T08:07:35.710Z,3.88
2023-03-10T08:08:38.091Z,4.20
2023-03-10T08:09:40.395Z,3.60
2023-03-10T08:10:42.558Z,3.50
2023-03-10T08:11:44.470Z,3.45
2023-03-10T08:12:46.356Z,3.15
2023-03-10T08:13:48.813Z,5.93
2023-03-10T08:37:44.040Z,12.02
2023-03-10T08:38:46.718Z,22.60
2023-03-10T08:39:50.147Z,7.35
2023-03-10T08:40:52.091Z,4.15
2023-03-10T08:41:54.031Z,3.00
2023-03-10T08:42:55.938Z,3.90
2023-03-10T08:43:59.081Z,6.28
2023-03-10T08:45:01.212Z,9.02
2023-03-10T08:46:03.214Z,3.78
2023-03-10T11:07:27.460Z,3.42
2023-03-10T11:08:37.786Z,2.55
2023-03-10T11:09:39.730Z,2.00
2023-03-10T11:10:42.693Z,2.00
2023-03-10T11:11:51.452Z,2.08
2023-03-10T11:13:17.530Z,3.20
2023-03-10T11:14:35.361Z,2.55
2023-03-10T11:15:46.489Z,3.83
2023-03-10T11:18:02.489Z,3.25
2023-03-10T11:19:32.908Z,3.38
2023-03-10T11:20:49.685Z,3.20
2023-03-10T11:21:57.293Z,2.10
2023-03-10T11:23:13.412Z,1.50
2023-03-10T11:24:38.573Z,2.20
2023-03-10T11:25:52.310Z,2.22
2023-03-10T11:27:20.063Z,2.15
2023-03-10T11:28:52.472Z,1.85
2023-03-10T11:30:11.000Z,1.80
2023-03-10T11:31:39.718Z,1.80
2023-03-10T11:32:59.154Z,1.70
2023-03-10T11:34:19.983Z,1.60
2023-03-10T11:35:27.522Z,1.65
2023-03-10T11:36:55.805Z,1.70
2023-03-10T11:38:28.885Z,1.65
2023-03-10T11:39:45.644Z,1.90
2023-03-10T11:40:57.331Z,1.92
2023-03-10T11:42:25.867Z,1.83
2023-03-10T11:43:52.184Z,1.90
2023-03-10T11:45:04.772Z,2.30
2023-03-10T11:46:23.817Z,2.33
2023-03-10T11:47:50.955Z,3.72
2023-03-10T11:49:01.822Z,2.50
2023-03-10T11:50:32.029Z,2.78
2023-03-10T11:51:45.524Z,2.78
2023-03-10T11:52:50.988Z,2.30
2023-03-10T11:53:55.828Z,1.88
2023-03-10T11:55:14.943Z,1.80
2023-03-10T11:56:20.579Z,2.30
2023-03-10T11:57:25.698Z,2.15
2023-03-10T11:58:35.367Z,2.47
2023-03-10T11:59:47.626Z,2.25
2023-03-10T12:00:52.754Z,2.30
2023-03-10T12:02:20.194Z,2.40
2023-03-10T12:03:54.065Z,1.95
2023-03-10T12:05:08.874Z,1.67
2023-03-10T12:06:19.990Z,1.60
2023-03-10T12:07:36.199Z,1.70
2023-03-10T12:08:40.055Z,1.70
2023-03-10T12:09:54.374Z,1.60
2023-03-10T12:10:59.745Z,1.50
2023-03-10T12:12:04.075Z,1.95
2023-03-10T12:13:06.754Z,2.35
2023-03-10T12:14:14.343Z,2.05
2023-03-10T12:15:32.992Z,2.00
2023-03-10T12:16:38.293Z,1.80
2023-03-10T12:17:41.189Z,1.60
2023-03-10T12:18:43.169Z,1.90
2023-03-10T12:20:16.256Z,1.80
2023-03-10T12:21:19.650Z,1.25
2023-03-10T12:22:21.506Z,1.50
2023-03-10T12:23:26.871Z,1.30
2023-03-10T12:24:48.047Z,1.30
2023-03-10T12:25:50.479Z,1.50
2023-03-10T12:27:00.006Z,1.75
2023-03-10T12:28:17.669Z,1.88
2023-03-10T12:29:22.613Z,1.40
2023-03-10T12:30:53.468Z,1.55
2023-03-10T12:31:55.588Z,1.70
2023-03-10T12:32:57.647Z,1.52
2023-03-10T12:34:23.791Z,1.63
2023-03-10T12:35:28.596Z,1.85
2023-03-10T12:36:33.919Z,1.73
2023-03-10T12:37:35.882Z,2.05
2023-03-10T12:38:43.254Z,3.53
2023-03-10T12:39:46.036Z,1.95
2023-03-10T12:40:52.190Z,1.40
2023-03-10T12:42:01.880Z,1.65
2023-03-10T12:43:38.711Z,1.65
2023-03-10T12:44:49.855Z,3.45
2023-03-10T12:45:52.114Z,1.80
2023-03-10T12:47:09.248Z,1.10
2023-03-10T12:48:17.845Z,1.38
2023-03-10T12:49:33.567Z,1.20
2023-03-10T12:50:48.098Z,1.40
2023-03-10T12:52:14.256Z,1.30
2023-03-10T12:53:30.609Z,2.10
2023-03-10T12:54:52.437Z,1.70
2023-03-10T12:56:12.728Z,1.50
2023-03-10T12:57:32.766Z,1.45
2023-03-10T12:58:37.232Z,1.25
2023-03-10T12:59:46.784Z,1.30
2023-03-10T13:00:53.494Z,1.60
2023-03-10T13:01:57.894Z,1.48
2023-03-10T13:03:32.079Z,1.02
2023-03-10T13:04:34.933Z,1.30
2023-03-10T13:06:14.894Z,1.10
2023-03-10T13:07:19.690Z,1.40
2023-03-10T13:08:41.512Z,1.10
2023-03-10T13:09:47.973Z,1.40
2023-03-10T13:10:55.602Z,1.23
2023-03-10T13:12:03.217Z,1.20
2023-03-10T13:13:08.970Z,1.33
2023-03-10T13:14:24.222Z,1.38
2023-03-10T13:15:32.103Z,1.02
2023-03-10T13:16:36.566Z,1.33
2023-03-10T13:17:38.588Z,1.90
2023-03-10T13:18:48.722Z,1.70
2023-03-10T13:20:02.284Z,3.80
2023-03-10T13:21:04.348Z,2.63
2023-03-10T13:22:06.362Z,2.00
2023-03-10T13:23:29.583Z,1.80
2023-03-10T13:24:35.663Z,3.00
2023-03-10T13:25:37.529Z,2.00
2023-03-10T13:26:39.394Z,3.10
2023-03-10T13:27:41.252Z,2.00
2023-03-10T13:29:00.993Z,1.13
2023-03-10T13:30:21.724Z,2.08
2023-03-10T13:31:27.245Z,2.00
2023-03-10T13:32:30.558Z,1.58
2023-03-10T13:33:43.064Z,1.80
2023-03-10T13:34:48.781Z,1.85
2023-03-10T13:35:50.812Z,2.80
2023-03-10T13:36:52.664Z,2.53
2023-03-10T13:38:09.514Z,2.97
2023-03-10T13:39:25.586Z,5.03
2023-03-10T13:40:28.658Z,4.68
2023-03-10T13:41:37.384Z,5.53
2023-03-10T13:42:44.278Z,4.00
2023-03-10T13:43:51.384Z,2.92
2023-03-10T13:44:55.276Z,2.25
2023-03-10T13:45:58.806Z,8.20
2023-03-10T13:47:04.482Z,5.60
2023-03-10T13:48:07.287Z,5.32
2023-03-10T13:49:13.740Z,4.18
2023-03-10T13:50:16.960Z,3.83
2023-03-10T13:51:32.260Z,3.70
2023-03-10T13:52:34.814Z,2.55
2023-03-10T13:53:36.830Z,3.55
2023-03-10T13:54:41.791Z,5.20
2023-03-10T13:55:43.731Z,5.35
2023-03-10T13:56:47.175Z,5.05
2023-03-10T13:57:50.334Z,4.32
2023-03-10T13:58:55.169Z,4.13
2023-03-10T13:59:58.172Z,3.75
2023-03-10T14:01:00.990Z,2.28
2023-03-10T14:02:04.698Z,1.95
2023-03-10T14:03:08.283Z,3.35
2023-03-10T14:04:16.964Z,3.92
2023-03-10T14:05:47.141Z,4.40
2023-03-10T14:07:26.345Z,4.50
2023-03-10T14:08:30.996Z,4.10
2023-03-10T14:09:32.899Z,4.40
2023-03-10T14:10:34.928Z,3.58
2023-03-10T14:11:46.931Z,3.28
2023-03-10T14:12:54.484Z,2.20
2023-03-10T14:13:56.448Z,2.00
2023-03-10T14:15:38.716Z,2.63
2023-03-10T14:16:45.850Z,2.95
2023-03-10T14:18:07.467Z,2.78
2023-03-10T14:19:11.060Z,2.42
2023-03-10T14:20:30.542Z,2.22
2023-03-10T14:21:34.214Z,3.08
2023-03-10T14:22:43.657Z,4.50
2023-03-10T14:23:45.645Z,3.42
2023-03-10T14:24:47.625Z,1.90
2023-03-10T14:25:52.780Z,2.00
2023-03-10T14:26:59.742Z,1.85
2023-03-10T14:28:29.152Z,1.77
2023-03-10T14:29:32.524Z,1.80
2023-03-10T14:30:34.954Z,2.25
2023-03-10T14:31:36.857Z,2.50
2023-03-10T14:32:39.700Z,2.42
2023-03-10T14:33:42.364Z,2.08
2023-03-10T14:34:44.632Z,2.83
2023-03-10T14:35:47.186Z,2.38
2023-03-10T14:36:49.036Z,1.83
2023-03-10T14:37:51.952Z,1.90
2023-03-10T14:38:53.857Z,1.85
2023-03-10T14:39:55.837Z,1.60
2023-03-10T14:40:57.728Z,1.70
2023-03-10T14:42:02.849Z,1.80
2023-03-10T14:43:05.155Z,1.55
2023-03-10T14:44:07.247Z,1.70
2023-03-10T14:45:29.551Z,1.80
2023-03-10T14:46:35.344Z,1.70
2023-03-10T14:47:37.866Z,2.22
2023-03-10T14:48:42.083Z,1.98
2023-03-10T14:49:44.233Z,2.20
2023-03-10T14:50:47.707Z,2.50
2023-03-10T14:51:49.779Z,4.03
2023-03-10T14:52:51.651Z,2.35
2023-03-10T14:53:53.546Z,2.70
2023-03-10T14:54:55.614Z,1.85
2023-03-10T14:56:00.427Z,2.35
2023-03-10T14:57:03.622Z,1.63
2023-03-10T14:58:06.897Z,1.48
2023-03-10T14:59:14.087Z,1.80
2023-03-10T15:00:19.523Z,3.00
2023-03-10T15:01:22.093Z,3.08
2023-03-10T15:02:25.622Z,2.65
2023-03-10T15:03:28.240Z,3.10
2023-03-10T15:04:30.146Z,2.30
2023-03-10T15:05:47.314Z,2.63
2023-03-10T15:06:50.072Z,2.40
2023-03-10T15:07:52.171Z,1.83
2023-03-10T15:08:54.051Z,2.13
2023-03-10T15:10:10.696Z,1.33
2023-03-10T15:11:14.689Z,1.55
2023-03-10T15:12:20.525Z,1.30
2023-03-10T15:13:24.941Z,1.10
2023-03-10T15:14:27.122Z,1.40
2023-03-10T15:15:39.559Z,1.08
2023-03-10T15:16:41.797Z,1.40
2023-03-10T15:17:45.236Z,1.25
2023-03-10T15:18:49.204Z,1.02
2023-03-10T15:19:51.295Z,1.10
2023-03-10T15:21:03.557Z,1.60
2023-03-10T15:22:05.479Z,1.77
2023-03-10T15:23:07.925Z,2.58
2023-03-10T15:24:09.877Z,4.00
2023-03-10T15:25:13.584Z,3.10
2023-03-10T15:26:15.652Z,2.75
2023-03-10T15:27:17.625Z,1.13
2023-03-10T15:28:19.897Z,1.38
2023-03-10T15:29:23.724Z,1.20
2023-03-10T15:30:31.849Z,1.65
2023-03-10T15:31:33.829Z,2.20
2023-03-10T15:32:36.052Z,2.42
2023-03-10T15:33:38.104Z,2.45
2023-03-10T15:34:40.024Z,2.22
2023-03-10T15:35:43.866Z,1.63
2023-03-10T15:36:46.254Z,2.47
2023-03-10T15:37:49.001Z,2.17
2023-03-10T15:38:52.867Z,1.58
2023-03-10T15:39:54.915Z,2.50
2023-03-10T15:40:57.307Z,3.38
2023-03-10T15:41:59.274Z,2.35
2023-03-10T15:43:01.459Z,2.15
2023-03-10T15:44:04.243Z,1.75
2023-03-10T15:45:08.394Z,2.70
2023-03-10T15:46:11.394Z,2.75
2023-03-10T15:47:13.314Z,3.20
2023-03-10T15:48:15.210Z,4.22
2023-03-10T15:49:17.532Z,3.70
2023-03-10T15:50:20.965Z,3.75
2023-03-10T15:51:23.362Z,6.10
2023-03-10T15:52:25.342Z,4.72
2023-03-10T15:53:27.338Z,5.22
2023-03-10T15:54:29.423Z,4.93
2023-03-10T15:55:31.487Z,5.32
2023-03-10T15:56:34.111Z,4.70
2023-03-10T15:57:36.616Z,6.13
2023-03-10T15:58:38.671Z,3.60
2023-03-10T15:59:41.010Z,5.22
2023-03-10T16:00:43.933Z,5.35
2023-03-10T16:01:46.172Z,3.83
2023-03-10T16:02:49.322Z,3.88
2023-03-10T16:03:51.373Z,5.88
2023-03-10T16:04:53.674Z,5.50
2023-03-10T16:05:55.569Z,4.15
2023-03-10T16:06:57.547Z,5.18
2023-03-10T16:07:59.600Z,7.07
2023-03-10T16:09:01.826Z,4.18
2023-03-10T16:10:04.872Z,3.38
2023-03-10T16:11:16.278Z,3.65
2023-03-10T16:12:18.295Z,2.83
2023-03-10T16:13:20.982Z,8.48
2023-03-10T16:14:26.126Z,16.08
2023-03-10T16:15:28.156Z,13.93
2023-03-10T16:16:30.158Z,7.43
2023-03-10T16:17:32.176Z,7.75
2023-03-10T16:18:35.179Z,4.05
2023-03-10T16:19:37.275Z,3.80
2023-03-10T16:20:39.166Z,4.30
2023-03-10T16:21:41.023Z,2.90
2023-03-10T16:22:43.250Z,6.45
2023-03-10T16:23:45.747Z,5.18
2023-03-10T16:24:47.954Z,5.32
2023-03-10T16:26:16.635Z,6.93
2023-03-10T16:27:18.702Z,7.20
2023-03-10T16:28:20.576Z,6.80
2023-03-10T16:29:22.599Z,4.90
2023-03-10T16:30:24.820Z,5.95
2023-03-10T16:31:27.857Z,3.30
2023-03-10T16:32:30.730Z,3.45
2023-03-10T16:33:33.512Z,2.50
2023-03-10T16:34:36.340Z,2.45
2023-03-10T16:35:38.920Z,2.17
2023-03-10T16:36:40.949Z,2.70
2023-03-10T16:37:42.863Z,4.00
2023-03-10T16:38:44.954Z,4.75
2023-03-10T16:39:47.088Z,3.50
2023-03-10T16:40:50.668Z,3.13
2023-03-10T16:41:52.891Z,2.60
2023-03-10T16:42:54.797Z,2.53
2023-03-10T16:43:56.714Z,1.90
2023-03-10T16:44:58.601Z,2.75
2023-03-10T16:46:11.663Z,2.05
2023-03-10T16:47:15.219Z,1.42
2023-03-10T16:48:20.415Z,1.58
2023-03-10T16:49:23.007Z,2.05
2023-03-10T16:50:25.015Z,2.17
2023-03-10T16:51:38.165Z,2.40
2023-03-10T16:52:42.707Z,2.20
2023-03-10T16:53:45.188Z,2.35
2023-03-10T16:54:47.930Z,1.10
2023-03-10T16:55:50.061Z,1.10
2023-03-10T16:56:54.455Z,0.98
2023-03-10T16:57:57.201Z,1.42
2023-03-10T16:58:59.192Z,1.38
2023-03-10T17:00:01.746Z,1.70
2023-03-10T17:01:03.776Z,1.42
2023-03-10T17:02:06.224Z,1.52
2023-03-10T17:03:08.186Z,1.40
2023-03-10T17:04:11.550Z,2.00
2023-03-10T17:05:15.400Z,2.33
2023-03-10T17:06:22.618Z,1.65
2023-03-10T17:07:24.576Z,1.90
2023-03-10T17:08:28.832Z,2.17
2023-03-10T17:09:30.850Z,3.53
2023-03-10T17:10:33.449Z,2.28
2023-03-10T17:11:38.509Z,2.50
2023-03-10T17:12:40.478Z,1.63
2023-03-10T17:13:46.283Z,1.63
2023-03-10T17:14:50.851Z,1.25
2023-03-10T17:15:52.988Z,1.88
2023-03-10T17:16:55.982Z,1.42
2023-03-10T17:17:58.045Z,1.90
2023-03-10T17:19:03.501Z,3.33
2023-03-10T17:20:05.960Z,1.90
2023-03-10T17:21:12.697Z,2.33
2023-03-10T17:22:14.887Z,2.13
2023-03-10T17:23:16.886Z,8.98
2023-03-10T17:24:20.296Z,2.42
2023-03-10T17:25:22.349Z,2.25
2023-03-10T17:26:24.948Z,1.45
2023-03-10T17:27:27.857Z,1.30
2023-03-10T17:28:32.304Z,2.70
2023-03-10T17:29:34.348Z,4.35
2023-03-10T17:30:40.187Z,10.80
2023-03-10T17:31:43.965Z,7.93
2023-03-10T17:32:48.492Z,3.20
2023-03-10T17:33:50.619Z,4.40
2023-03-10T17:34:53.778Z,2.95
2023-03-10T17:35:55.655Z,2.35
2023-03-10T17:36:57.540Z,1.58
2023-03-10T17:37:59.731Z,2.90
2023-03-10T17:39:03.777Z,2.22
2023-03-10T17:40:09.376Z,1.80
2023-03-10T17:41:13.910Z,1.65
2023-03-10T17:42:18.299Z,1.50
2023-03-10T17:43:33.504Z,1.70
2023-03-10T17:44:35.917Z,1.25
2023-03-10T17:45:38.238Z,1.52
2023-03-10T17:46:43.174Z,2.67
2023-03-10T17:47:45.472Z,1.35
2023-03-10T17:48:47.729Z,1.52
2023-03-10T17:49:49.973Z,1.75
2023-03-10T17:50:52.108Z,1.95
2023-03-10T17:51:54.540Z,1.48
2023-03-10T17:52:56.451Z,1.75
2023-03-10T17:54:01.371Z,1.70
2023-03-10T17:55:03.569Z,2.08
2023-03-10T17:56:07.091Z,2.22
2023-03-10T17:57:09.125Z,2.10
2023-03-10T17:58:11.268Z,3.03
2023-03-10T17:59:16.342Z,2.40
2023-03-10T18:00:19.604Z,2.30
2023-03-10T18:01:27.650Z,1.40
2023-03-10T18:02:29.910Z,2.20
2023-03-10T18:03:32.126Z,1.40